Terminal Aerodrome Forecast
Issued by NWS Charleston, WV

Home | Current Version | Previous Version | Text Only | Print | Product List | Glossary On
Versions: 1 2 3 4 5 6 7 8 9 10 11 12 13 14 15 16 17 18 19 20 21 22
619
FTUS41 KRLX 281138
TAFBKW
TAF
KBKW 281138Z 2812/2912 22007KT P6SM SCT007 BKN029 OVC035
      TEMPO 2812/2813 -SHRA BKN006
     FM281700 23008G17KT P6SM VCTS BKN035CB
     FM282300 25008KT P6SM BKN050
     FM290500 25006KT P6SM BKN030
     FM290800 26007KT P6SM -SHRA BKN010=

USA.gov is the U.S. government's official web portal to all federal, state and local government web resources and services.